Terminal Aerodrome Forecast
Issued by NWS King Salmon, AK

Home | Current Version | Previous Version | Text Only | Print | Product List | Glossary On
Versions: 1 2 3 4 5 6 7 8 9 10 11 12 13 14 15 16 17 18 19 20 21 22 23 24 25 26 27 28 29 30
000
FTAK31 PANC 251734
TAFAKN
TAF
PAKN 251734Z 2518/2618 36008KT P6SM OVC045
     FM252000 08013KT P6SM BKN060 OVC100
     FM260400 05008KT P6SM FEW060 BKN150
     FM260900 01005KT P6SM SCT250=

USA.gov is the U.S. government's official web portal to all federal, state and local government web resources and services.